sensor_id;sensor_type;location;lat;lon;timestamp;P1;durP1;ratioP1;P2;durP2;ratioP2
7211;SDS011;3647;48.792;9.802;2022-12-11T08:00:33;19.60;;;15.10;;
7211;SDS011;3647;48.792;9.802;2022-12-11T08:02:59;20.90;;;15.07;;
7211;SDS011;3647;48.792;9.802;2022-12-11T08:05:26;23.60;;;14.83;;
7211;SDS011;3647;48.792;9.802;2022-12-11T08:07:53;23.50;;;15.13;;
7211;SDS011;3647;48.792;9.802;2022-12-11T08:10:20;27.23;;;15.37;;
7211;SDS011;3647;48.792;9.802;2022-12-11T08:12:47;22.40;;;14.73;;
7211;SDS011;3647;48.792;9.802;2022-12-11T08:15:14;24.47;;;14.77;;
7211;SDS011;3647;48.792;9.802;2022-12-11T08:17:42;25.17;;;14.87;;
7211;SDS011;3647;48.792;9.802;2022-12-11T08:20:09;27.57;;;15.70;;
7211;SDS011;3647;48.792;9.802;2022-12-11T08:22:36;22.77;;;15.00;;
7211;SDS011;3647;48.792;9.802;2022-12-11T08:25:04;22.13;;;14.53;;
7211;SDS011;3647;48.792;9.802;2022-12-11T08:27:31;21.43;;;15.00;;
7211;SDS011;3647;48.792;9.802;2022-12-11T08:29:58;21.77;;;14.17;;
7211;SDS011;3647;48.792;9.802;2022-12-11T08:32:25;20.37;;;13.90;;
7211;SDS011;3647;48.792;9.802;2022-12-11T08:34:53;23.53;;;14.80;;
7211;SDS011;3647;48.792;9.802;2022-12-11T08:37:23;22.30;;;13.23;;
7211;SDS011;3647;48.792;9.802;2022-12-11T08:39:50;23.13;;;14.43;;
7211;SDS011;3647;48.792;9.802;2022-12-11T08:42:17;19.80;;;13.87;;
7211;SDS011;3647;48.792;9.802;2022-12-11T08:44:44;22.17;;;14.00;;
7211;SDS011;3647;48.792;9.802;2022-12-11T08:47:11;19.77;;;13.80;;
7211;SDS011;3647;48.792;9.802;2022-12-11T08:49:41;22.60;;;14.20;;
7211;SDS011;3647;48.792;9.802;2022-12-11T08:52:09;22.80;;;14.90;;
7211;SDS011;3647;48.792;9.802;2022-12-11T08:54:36;23.10;;;14.03;;
7211;SDS011;3647;48.792;9.802;2022-12-11T08:57:03;21.70;;;14.30;;
7211;SDS011;3647;48.792;9.802;2022-12-11T08:59:30;24.83;;;15.60;;
7211;SDS011;3647;48.792;9.802;2022-12-11T09:01:57;23.00;;;15.30;;
7211;SDS011;3647;48.792;9.802;2022-12-11T09:04:24;22.87;;;14.53;;
7211;SDS011;3647;48.792;9.802;2022-12-11T09:06:52;26.33;;;15.90;;
7211;SDS011;3647;48.792;9.802;2022-12-11T09:09:21;20.27;;;13.47;;
7211;SDS011;3647;48.792;9.802;2022-12-11T09:11:48;20.10;;;13.47;;
7211;SDS011;3647;48.792;9.802;2022-12-11T09:14:15;21.23;;;13.93;;
7211;SDS011;3647;48.792;9.802;2022-12-11T09:16:42;23.47;;;15.27;;
7211;SDS011;3647;48.792;9.802;2022-12-11T09:19:10;23.33;;;14.07;;
7211;SDS011;3647;48.792;9.802;2022-12-11T09:21:39;19.90;;;13.17;;
7211;SDS011;3647;48.792;9.802;2022-12-11T09:24:07;24.33;;;15.17;;
7211;SDS011;3647;48.792;9.802;2022-12-11T09:26:37;23.73;;;14.27;;
7211;SDS011;3647;48.792;9.802;2022-12-11T09:29:04;21.50;;;14.37;;
7211;SDS011;3647;48.792;9.802;2022-12-11T09:31:32;22.80;;;15.10;;
7211;SDS011;3647;48.792;9.802;2022-12-11T09:34:02;21.93;;;14.20;;
7211;SDS011;3647;48.792;9.802;2022-12-11T09:36:30;20.47;;;13.93;;
7211;SDS011;3647;48.792;9.802;2022-12-11T09:38:58;22.33;;;13.97;;
7211;SDS011;3647;48.792;9.802;2022-12-11T09:41:34;21.37;;;14.53;;
7211;SDS011;3647;48.792;9.802;2022-12-11T09:44:13;20.80;;;13.10;;
7211;SDS011;3647;48.792;9.802;2022-12-11T09:46:43;25.50;;;15.43;;
7211;SDS011;3647;48.792;9.802;2022-12-11T09:49:14;22.63;;;14.60;;
7211;SDS011;3647;48.792;9.802;2022-12-11T09:51:50;24.83;;;14.40;;
7211;SDS011;3647;48.792;9.802;2022-12-11T09:54:25;24.73;;;14.03;;
7211;SDS011;3647;48.792;9.802;2022-12-11T09:56:55;23.33;;;14.47;;
7211;SDS011;3647;48.792;9.802;2022-12-11T09:59:33;21.83;;;13.67;;
7211;SDS011;3647;48.792;9.802;2022-12-11T10:02:12;20.17;;;12.93;;
7211;SDS011;3647;48.792;9.802;2022-12-11T10:04:50;20.97;;;13.67;;
7211;SDS011;3647;48.792;9.802;2022-12-11T10:07:26;29.23;;;15.57;;
7211;SDS011;3647;48.792;9.802;2022-12-11T10:10:01;21.70;;;14.10;;
7211;SDS011;3647;48.792;9.802;2022-12-11T10:12:41;24.57;;;16.27;;
7211;SDS011;3647;48.792;9.802;2022-12-11T10:15:15;21.03;;;13.27;;
7211;SDS011;3647;48.792;9.802;2022-12-11T10:17:52;20.47;;;14.40;;
7211;SDS011;3647;48.792;9.802;2022-12-11T10:20:22;22.87;;;13.70;;
7211;SDS011;3647;48.792;9.802;2022-12-11T10:22:52;20.47;;;13.90;;
7211;SDS011;3647;48.792;9.802;2022-12-11T10:25:21;22.40;;;14.43;;
7211;SDS011;3647;48.792;9.802;2022-12-11T10:27:53;21.63;;;13.23;;
7211;SDS011;3647;48.792;9.802;2022-12-11T10:30:22;22.97;;;14.13;;
7211;SDS011;3647;48.792;9.802;2022-12-11T10:32:52;24.40;;;14.70;;
7211;SDS011;3647;48.792;9.802;2022-12-11T10:35:28;21.40;;;13.17;;
7211;SDS011;3647;48.792;9.802;2022-12-11T10:38:03;22.60;;;13.77;;
7211;SDS011;3647;48.792;9.802;2022-12-11T10:40:38;21.80;;;14.23;;
7211;SDS011;3647;48.792;9.802;2022-12-11T10:43:09;23.90;;;13.23;;
7211;SDS011;3647;48.792;9.802;2022-12-11T10:45:37;21.20;;;12.37;;
7211;SDS011;3647;48.792;9.802;2022-12-11T10:48:05;20.77;;;13.37;;
7211;SDS011;3647;48.792;9.802;2022-12-11T10:50:35;19.13;;;12.70;;
7211;SDS011;3647;48.792;9.802;2022-12-11T10:53:03;23.43;;;12.57;;
7211;SDS011;3647;48.792;9.802;2022-12-11T10:55:33;20.63;;;12.90;;
7211;SDS011;3647;48.792;9.802;2022-12-11T10:58:14;19.70;;;12.97;;
7211;SDS011;3647;48.792;9.802;2022-12-11T11:00:43;22.77;;;14.00;;
7211;SDS011;3647;48.792;9.802;2022-12-11T11:03:19;19.27;;;12.43;;
7211;SDS011;3647;48.792;9.802;2022-12-11T11:05:47;20.93;;;12.40;;
7211;SDS011;3647;48.792;9.802;2022-12-11T11:08:15;18.13;;;11.83;;
7211;SDS011;3647;48.792;9.802;2022-12-11T11:10:51;18.67;;;12.93;;
7211;SDS011;3647;48.792;9.802;2022-12-11T11:13:21;20.57;;;12.30;;
7211;SDS011;3647;48.792;9.802;2022-12-11T11:15:56;17.70;;;11.60;;
7211;SDS011;3647;48.792;9.802;2022-12-11T11:18:25;20.30;;;12.60;;
7211;SDS011;3647;48.792;9.802;2022-12-11T11:20:54;19.37;;;13.13;;
7211;SDS011;3647;48.792;9.802;2022-12-11T11:23:21;19.57;;;13.23;;
7211;SDS011;3647;48.792;9.802;2022-12-11T11:25:51;19.23;;;12.63;;
7211;SDS011;3647;48.792;9.802;2022-12-11T11:28:22;19.43;;;11.93;;
7211;SDS011;3647;48.792;9.802;2022-12-11T11:30:54;19.60;;;12.73;;
7211;SDS011;3647;48.792;9.802;2022-12-11T11:33:23;23.00;;;13.73;;
7211;SDS011;3647;48.792;9.802;2022-12-11T11:35:51;22.00;;;14.37;;
7211;SDS011;3647;48.792;9.802;2022-12-11T11:38:21;21.03;;;13.40;;
7211;SDS011;3647;48.792;9.802;2022-12-11T11:40:51;19.73;;;13.03;;
7211;SDS011;3647;48.792;9.802;2022-12-11T11:43:27;20.97;;;12.77;;
7211;SDS011;3647;48.792;9.802;2022-12-11T11:46:00;16.93;;;12.27;;
7211;SDS011;3647;48.792;9.802;2022-12-11T11:48:34;21.47;;;13.33;;
7211;SDS011;3647;48.792;9.802;2022-12-11T11:51:07;21.37;;;12.70;;
7211;SDS011;3647;48.792;9.802;2022-12-11T11:53:40;20.20;;;13.30;;
7211;SDS011;3647;48.792;9.802;2022-12-11T11:56:14;21.30;;;13.03;;
7211;SDS011;3647;48.792;9.802;2022-12-11T11:58:48;21.27;;;12.57;;
7211;SDS011;3647;48.792;9.802;2022-12-11T12:01:21;18.70;;;12.07;;
7211;SDS011;3647;48.792;9.802;2022-12-11T12:03:49;17.87;;;12.37;;
7211;SDS011;3647;48.792;9.802;2022-12-11T12:06:18;18.27;;;12.53;;
7211;SDS011;3647;48.792;9.802;2022-12-11T12:09:02;19.97;;;11.77;;
7211;SDS011;3647;48.792;9.802;2022-12-11T12:11:42;19.83;;;11.60;;
7211;SDS011;3647;48.792;9.802;2022-12-11T12:14:17;17.10;;;12.20;;
7211;SDS011;3647;48.792;9.802;2022-12-11T12:16:50;16.97;;;10.70;;
7211;SDS011;3647;48.792;9.802;2022-12-11T12:19:31;18.30;;;12.20;;
7211;SDS011;3647;48.792;9.802;2022-12-11T12:22:18;21.50;;;12.50;;
7211;SDS011;3647;48.792;9.802;2022-12-11T12:24:54;19.13;;;11.77;;
7211;SDS011;3647;48.792;9.802;2022-12-11T12:27:29;18.53;;;12.40;;
7211;SDS011;3647;48.792;9.802;2022-12-11T12:30:03;19.87;;;12.80;;
7211;SDS011;3647;48.792;9.802;2022-12-11T12:32:36;18.73;;;12.37;;
7211;SDS011;3647;48.792;9.802;2022-12-11T12:35:14;16.20;;;11.63;;
7211;SDS011;3647;48.792;9.802;2022-12-11T12:37:50;18.17;;;12.90;;
7211;SDS011;3647;48.792;9.802;2022-12-11T12:40:25;20.00;;;12.20;;
7211;SDS011;3647;48.792;9.802;2022-12-11T12:42:59;26.87;;;12.13;;
7211;SDS011;3647;48.792;9.802;2022-12-11T12:45:33;16.80;;;10.87;;
7211;SDS011;3647;48.792;9.802;2022-12-11T12:48:08;19.87;;;12.23;;
7211;SDS011;3647;48.792;9.802;2022-12-11T12:50:36;16.80;;;11.67;;
7211;SDS011;3647;48.792;9.802;2022-12-11T12:53:05;19.43;;;11.97;;
7211;SDS011;3647;48.792;9.802;2022-12-11T12:55:33;15.73;;;11.17;;
7211;SDS011;3647;48.792;9.802;2022-12-11T12:58:02;20.27;;;12.70;;
7211;SDS011;3647;48.792;9.802;2022-12-11T13:00:33;19.57;;;12.00;;
7211;SDS011;3647;48.792;9.802;2022-12-11T13:03:02;15.50;;;11.03;;
7211;SDS011;3647;48.792;9.802;2022-12-11T13:05:39;12.80;;;10.03;;
7211;SDS011;3647;48.792;9.802;2022-12-11T13:08:09;16.20;;;11.23;;
7211;SDS011;3647;48.792;9.802;2022-12-11T13:10:38;17.07;;;10.50;;
7211;SDS011;3647;48.792;9.802;2022-12-11T13:15:56;16.90;;;10.27;;
7211;SDS011;3647;48.792;9.802;2022-12-11T13:18:32;19.77;;;12.00;;
7211;SDS011;3647;48.792;9.802;2022-12-11T13:21:01;18.73;;;12.07;;
7211;SDS011;3647;48.792;9.802;2022-12-11T13:23:49;17.40;;;11.50;;
7211;SDS011;3647;48.792;9.802;2022-12-11T13:26:25;18.70;;;12.07;;
7211;SDS011;3647;48.792;9.802;2022-12-11T13:28:53;17.03;;;11.63;;
7211;SDS011;3647;48.792;9.802;2022-12-11T13:31:27;20.40;;;11.67;;
7211;SDS011;3647;48.792;9.802;2022-12-11T13:34:04;18.93;;;12.07;;
7211;SDS011;3647;48.792;9.802;2022-12-11T13:36:39;14.73;;;9.70;;
7211;SDS011;3647;48.792;9.802;2022-12-11T13:39:15;18.43;;;11.67;;
7211;SDS011;3647;48.792;9.802;2022-12-11T13:41:44;17.90;;;11.80;;
7211;SDS011;3647;48.792;9.802;2022-12-11T13:44:15;16.60;;;10.57;;
7211;SDS011;3647;48.792;9.802;2022-12-11T13:46:48;20.27;;;11.73;;
7211;SDS011;3647;48.792;9.802;2022-12-11T13:49:17;17.83;;;11.90;;
7211;SDS011;3647;48.792;9.802;2022-12-11T13:51:51;18.77;;;11.23;;
7211;SDS011;3647;48.792;9.802;2022-12-11T13:54:19;19.30;;;11.67;;
7211;SDS011;3647;48.792;9.802;2022-12-11T13:56:57;18.40;;;11.07;;
7211;SDS011;3647;48.792;9.802;2022-12-11T13:59:27;16.63;;;10.97;;
7211;SDS011;3647;48.792;9.802;2022-12-11T14:02:01;14.03;;;8.20;;
7211;SDS011;3647;48.792;9.802;2022-12-11T14:04:31;15.07;;;10.57;;
7211;SDS011;3647;48.792;9.802;2022-12-11T14:06:59;13.77;;;9.23;;
7211;SDS011;3647;48.792;9.802;2022-12-11T14:09:27;17.20;;;11.37;;
7211;SDS011;3647;48.792;9.802;2022-12-11T14:11:54;18.27;;;12.00;;
7211;SDS011;3647;48.792;9.802;2022-12-11T14:14:26;18.00;;;11.27;;
7211;SDS011;3647;48.792;9.802;2022-12-11T14:17:03;17.53;;;10.37;;
7211;SDS011;3647;48.792;9.802;2022-12-11T14:19:30;17.13;;;10.97;;
7211;SDS011;3647;48.792;9.802;2022-12-11T14:21:58;15.67;;;11.33;;
7211;SDS011;3647;48.792;9.802;2022-12-11T14:24:27;15.87;;;10.57;;
7211;SDS011;3647;48.792;9.802;2022-12-11T14:26:55;20.87;;;12.37;;
7211;SDS011;3647;48.792;9.802;2022-12-11T14:29:26;22.90;;;12.73;;
7211;SDS011;3647;48.792;9.802;2022-12-11T14:31:54;20.07;;;11.70;;
7211;SDS011;3647;48.792;9.802;2022-12-11T14:34:26;17.83;;;11.80;;
7211;SDS011;3647;48.792;9.802;2022-12-11T14:36:57;25.37;;;13.83;;
7211;SDS011;3647;48.792;9.802;2022-12-11T14:39:26;17.43;;;11.33;;
7211;SDS011;3647;48.792;9.802;2022-12-11T14:41:57;23.00;;;13.10;;
7211;SDS011;3647;48.792;9.802;2022-12-11T14:44:28;19.67;;;11.27;;
7211;SDS011;3647;48.792;9.802;2022-12-11T14:46:59;17.07;;;10.67;;
7211;SDS011;3647;48.792;9.802;2022-12-11T14:49:32;22.50;;;11.47;;
7211;SDS011;3647;48.792;9.802;2022-12-11T14:52:10;22.00;;;12.30;;
7211;SDS011;3647;48.792;9.802;2022-12-11T14:54:42;22.00;;;11.93;;
7211;SDS011;3647;48.792;9.802;2022-12-11T14:57:13;18.00;;;11.00;;
7211;SDS011;3647;48.792;9.802;2022-12-11T14:59:44;19.27;;;11.33;;
7211;SDS011;3647;48.792;9.802;2022-12-11T15:02:24;18.30;;;11.77;;
7211;SDS011;3647;48.792;9.802;2022-12-11T15:05:11;16.40;;;10.27;;
7211;SDS011;3647;48.792;9.802;2022-12-11T15:07:43;14.70;;;9.80;;
7211;SDS011;3647;48.792;9.802;2022-12-11T15:10:21;18.10;;;10.50;;
7211;SDS011;3647;48.792;9.802;2022-12-11T15:12:49;18.87;;;10.13;;
7211;SDS011;3647;48.792;9.802;2022-12-11T15:15:17;16.77;;;9.57;;
7211;SDS011;3647;48.792;9.802;2022-12-11T15:17:44;17.37;;;11.13;;
7211;SDS011;3647;48.792;9.802;2022-12-11T15:20:21;16.17;;;11.03;;
7211;SDS011;3647;48.792;9.802;2022-12-11T15:22:50;22.87;;;12.40;;
7211;SDS011;3647;48.792;9.802;2022-12-11T15:25:18;20.43;;;11.20;;
7211;SDS011;3647;48.792;9.802;2022-12-11T15:27:49;18.17;;;11.53;;
7211;SDS011;3647;48.792;9.802;2022-12-11T15:30:23;15.33;;;9.50;;
7211;SDS011;3647;48.792;9.802;2022-12-11T15:33:14;16.63;;;10.30;;
7211;SDS011;3647;48.792;9.802;2022-12-11T15:36:01;17.07;;;9.93;;
7211;SDS011;3647;48.792;9.802;2022-12-11T15:38:30;20.33;;;11.50;;
7211;SDS011;3647;48.792;9.802;2022-12-11T15:41:00;21.17;;;11.60;;
7211;SDS011;3647;48.792;9.802;2022-12-11T15:43:29;18.13;;;11.73;;
7211;SDS011;3647;48.792;9.802;2022-12-11T15:46:01;21.03;;;11.50;;
7211;SDS011;3647;48.792;9.802;2022-12-11T15:48:28;19.37;;;11.50;;
7211;SDS011;3647;48.792;9.802;2022-12-11T15:50:55;22.77;;;12.80;;
7211;SDS011;3647;48.792;9.802;2022-12-11T15:53:23;22.27;;;13.87;;
7211;SDS011;3647;48.792;9.802;2022-12-11T15:55:50;21.00;;;13.57;;
7211;SDS011;3647;48.792;9.802;2022-12-11T15:58:19;18.60;;;11.30;;
7211;SDS011;3647;48.792;9.802;2022-12-11T16:00:48;26.77;;;13.10;;
7211;SDS011;3647;48.792;9.802;2022-12-11T16:03:16;25.87;;;15.53;;
7211;SDS011;3647;48.792;9.802;2022-12-11T16:05:44;23.13;;;14.73;;
7211;SDS011;3647;48.792;9.802;2022-12-11T16:08:12;25.47;;;14.90;;
7211;SDS011;3647;48.792;9.802;2022-12-11T16:10:42;25.20;;;14.67;;
7211;SDS011;3647;48.792;9.802;2022-12-11T16:13:10;21.43;;;12.10;;
7211;SDS011;3647;48.792;9.802;2022-12-11T16:15:38;22.47;;;11.27;;
7211;SDS011;3647;48.792;9.802;2022-12-11T16:18:07;23.63;;;13.10;;
7211;SDS011;3647;48.792;9.802;2022-12-11T16:20:36;22.13;;;13.27;;
7211;SDS011;3647;48.792;9.802;2022-12-11T16:23:05;24.57;;;13.40;;
7211;SDS011;3647;48.792;9.802;2022-12-11T16:25:33;22.50;;;13.70;;
7211;SDS011;3647;48.792;9.802;2022-12-11T16:28:03;24.47;;;13.50;;
7211;SDS011;3647;48.792;9.802;2022-12-11T16:30:32;27.83;;;13.40;;
7211;SDS011;3647;48.792;9.802;2022-12-11T16:33:01;23.27;;;13.53;;
7211;SDS011;3647;48.792;9.802;2022-12-11T16:35:28;19.20;;;11.70;;
7211;SDS011;3647;48.792;9.802;2022-12-11T16:37:55;18.10;;;11.17;;
7211;SDS011;3647;48.792;9.802;2022-12-11T16:40:22;20.63;;;12.40;;
7211;SDS011;3647;48.792;9.802;2022-12-11T16:42:49;20.33;;;12.03;;
7211;SDS011;3647;48.792;9.802;2022-12-11T16:45:18;22.57;;;12.53;;
7211;SDS011;3647;48.792;9.802;2022-12-11T16:47:47;24.10;;;13.60;;
7211;SDS011;3647;48.792;9.802;2022-12-11T16:50:15;26.03;;;14.60;;
7211;SDS011;3647;48.792;9.802;2022-12-11T16:52:42;21.63;;;12.90;;
7211;SDS011;3647;48.792;9.802;2022-12-11T16:55:10;23.77;;;11.90;;
7211;SDS011;3647;48.792;9.802;2022-12-11T16:57:38;22.73;;;12.73;;
7211;SDS011;3647;48.792;9.802;2022-12-11T17:00:06;22.33;;;11.93;;
7211;SDS011;3647;48.792;9.802;2022-12-11T17:02:37;18.30;;;11.93;;
7211;SDS011;3647;48.792;9.802;2022-12-11T17:05:04;20.00;;;11.87;;
7211;SDS011;3647;48.792;9.802;2022-12-11T17:07:32;18.97;;;11.70;;
7211;SDS011;3647;48.792;9.802;2022-12-11T17:09:59;19.33;;;12.00;;
7211;SDS011;3647;48.792;9.802;2022-12-11T17:12:26;18.83;;;11.17;;
7211;SDS011;3647;48.792;9.802;2022-12-11T17:14:54;20.47;;;11.77;;
7211;SDS011;3647;48.792;9.802;2022-12-11T17:17:21;17.67;;;11.13;;
7211;SDS011;3647;48.792;9.802;2022-12-11T17:19:50;19.03;;;11.50;;
7211;SDS011;3647;48.792;9.802;2022-12-11T17:22:17;19.00;;;12.70;;
7211;SDS011;3647;48.792;9.802;2022-12-11T17:24:44;15.23;;;10.60;;
7211;SDS011;3647;48.792;9.802;2022-12-11T17:27:10;23.13;;;12.57;;
7211;SDS011;3647;48.792;9.802;2022-12-11T17:29:37;20.37;;;13.47;;
7211;SDS011;3647;48.792;9.802;2022-12-11T17:32:04;26.37;;;14.03;;
7211;SDS011;3647;48.792;9.802;2022-12-11T17:34:32;20.20;;;12.47;;
7211;SDS011;3647;48.792;9.802;2022-12-11T17:37:00;24.40;;;13.03;;
7211;SDS011;3647;48.792;9.802;2022-12-11T17:39:27;22.90;;;13.50;;
7211;SDS011;3647;48.792;9.802;2022-12-11T17:41:54;20.23;;;11.70;;
7211;SDS011;3647;48.792;9.802;2022-12-11T17:44:21;17.37;;;12.17;;
7211;SDS011;3647;48.792;9.802;2022-12-11T17:46:48;18.43;;;10.97;;
7211;SDS011;3647;48.792;9.802;2022-12-11T17:49:15;22.50;;;11.90;;
7211;SDS011;3647;48.792;9.802;2022-12-11T17:51:42;22.87;;;11.43;;
7211;SDS011;3647;48.792;9.802;2022-12-11T17:54:10;21.30;;;11.97;;
7211;SDS011;3647;48.792;9.802;2022-12-11T17:56:37;20.63;;;12.13;;
7211;SDS011;3647;48.792;9.802;2022-12-11T17:59:04;17.90;;;10.90;;
7211;SDS011;3647;48.792;9.802;2022-12-11T18:01:31;18.63;;;12.03;;
7211;SDS011;3647;48.792;9.802;2022-12-11T18:03:59;20.33;;;11.77;;
7211;SDS011;3647;48.792;9.802;2022-12-11T18:06:26;19.47;;;11.83;;
7211;SDS011;3647;48.792;9.802;2022-12-11T18:08:53;20.33;;;11.27;;
7211;SDS011;3647;48.792;9.802;2022-12-11T18:11:22;20.40;;;11.73;;
7211;SDS011;3647;48.792;9.802;2022-12-11T18:13:50;19.47;;;12.30;;
7211;SDS011;3647;48.792;9.802;2022-12-11T18:16:19;20.27;;;12.80;;
7211;SDS011;3647;48.792;9.802;2022-12-11T18:18:48;22.67;;;11.67;;
7211;SDS011;3647;48.792;9.802;2022-12-11T18:21:16;20.20;;;11.50;;
7211;SDS011;3647;48.792;9.802;2022-12-11T18:23:46;19.67;;;11.83;;
7211;SDS011;3647;48.792;9.802;2022-12-11T18:26:14;21.27;;;12.67;;
7211;SDS011;3647;48.792;9.802;2022-12-11T18:28:43;17.37;;;11.50;;
7211;SDS011;3647;48.792;9.802;2022-12-11T18:31:11;21.13;;;12.63;;
7211;SDS011;3647;48.792;9.802;2022-12-11T18:33:39;21.10;;;12.70;;
7211;SDS011;3647;48.792;9.802;2022-12-11T18:36:08;26.13;;;12.53;;
7211;SDS011;3647;48.792;9.802;2022-12-11T18:38:35;20.83;;;13.10;;
7211;SDS011;3647;48.792;9.802;2022-12-11T18:41:02;23.97;;;13.10;;
7211;SDS011;3647;48.792;9.802;2022-12-11T18:43:30;20.90;;;12.70;;
7211;SDS011;3647;48.792;9.802;2022-12-11T18:45:59;21.07;;;13.70;;
7211;SDS011;3647;48.792;9.802;2022-12-11T18:48:29;21.70;;;14.77;;
7211;SDS011;3647;48.792;9.802;2022-12-11T18:50:56;22.57;;;14.40;;
7211;SDS011;3647;48.792;9.802;2022-12-11T18:53:23;24.47;;;14.67;;
7211;SDS011;3647;48.792;9.802;2022-12-11T18:55:50;26.23;;;15.27;;
7211;SDS011;3647;48.792;9.802;2022-12-11T18:58:17;21.67;;;13.87;;
7211;SDS011;3647;48.792;9.802;2022-12-11T19:00:44;21.67;;;13.97;;
7211;SDS011;3647;48.792;9.802;2022-12-11T19:03:13;25.87;;;14.20;;
7211;SDS011;3647;48.792;9.802;2022-12-11T19:05:40;32.43;;;14.93;;
7211;SDS011;3647;48.792;9.802;2022-12-11T19:08:08;24.53;;;14.47;;
7211;SDS011;3647;48.792;9.802;2022-12-11T19:10:39;26.77;;;15.40;;
7211;SDS011;3647;48.792;9.802;2022-12-11T19:13:07;25.63;;;16.27;;
7211;SDS011;3647;48.792;9.802;2022-12-11T19:15:36;26.10;;;15.90;;
7211;SDS011;3647;48.792;9.802;2022-12-11T19:18:04;24.80;;;16.20;;
7211;SDS011;3647;48.792;9.802;2022-12-11T19:20:35;25.97;;;16.20;;
7211;SDS011;3647;48.792;9.802;2022-12-11T19:23:02;25.37;;;15.30;;
7211;SDS011;3647;48.792;9.802;2022-12-11T19:25:30;30.30;;;17.10;;
7211;SDS011;3647;48.792;9.802;2022-12-11T19:27:57;29.90;;;17.27;;
7211;SDS011;3647;48.792;9.802;2022-12-11T19:30:23;31.97;;;17.33;;
7211;SDS011;3647;48.792;9.802;2022-12-11T19:32:50;32.77;;;17.50;;
7211;SDS011;3647;48.792;9.802;2022-12-11T19:35:17;28.63;;;16.33;;
7211;SDS011;3647;48.792;9.802;2022-12-11T19:37:45;26.67;;;16.27;;
7211;SDS011;3647;48.792;9.802;2022-12-11T19:40:12;29.83;;;17.13;;
7211;SDS011;3647;48.792;9.802;2022-12-11T19:42:39;27.70;;;15.77;;
7211;SDS011;3647;48.792;9.802;2022-12-11T19:45:06;24.47;;;15.80;;
7211;SDS011;3647;48.792;9.802;2022-12-11T19:47:34;25.90;;;14.73;;
7211;SDS011;3647;48.792;9.802;2022-12-11T19:50:01;25.53;;;15.53;;
7211;SDS011;3647;48.792;9.802;2022-12-11T19:52:28;23.77;;;13.87;;
7211;SDS011;3647;48.792;9.802;2022-12-11T19:54:59;21.40;;;13.20;;
7211;SDS011;3647;48.792;9.802;2022-12-11T19:57:26;24.90;;;15.30;;
7211;SDS011;3647;48.792;9.802;2022-12-11T19:59:53;26.97;;;14.90;;
7211;SDS011;3647;48.792;9.802;2022-12-11T20:02:20;28.70;;;16.67;;
7211;SDS011;3647;48.792;9.802;2022-12-11T20:04:47;24.10;;;15.80;;
7211;SDS011;3647;48.792;9.802;2022-12-11T20:07:14;25.00;;;15.47;;
7211;SDS011;3647;48.792;9.802;2022-12-11T20:09:42;24.83;;;14.60;;
7211;SDS011;3647;48.792;9.802;2022-12-11T20:12:10;26.27;;;15.23;;
7211;SDS011;3647;48.792;9.802;2022-12-11T20:14:37;20.77;;;13.97;;
7211;SDS011;3647;48.792;9.802;2022-12-11T20:17:04;19.70;;;12.27;;
7211;SDS011;3647;48.792;9.802;2022-12-11T20:19:31;24.97;;;14.17;;
7211;SDS011;3647;48.792;9.802;2022-12-11T20:21:57;20.47;;;13.73;;
7211;SDS011;3647;48.792;9.802;2022-12-11T20:24:25;21.73;;;13.07;;
7211;SDS011;3647;48.792;9.802;2022-12-11T20:26:52;25.43;;;14.13;;
7211;SDS011;3647;48.792;9.802;2022-12-11T20:29:20;25.63;;;14.60;;
7211;SDS011;3647;48.792;9.802;2022-12-11T20:31:48;23.57;;;13.93;;
7211;SDS011;3647;48.792;9.802;2022-12-11T20:34:15;25.73;;;13.97;;
7211;SDS011;3647;48.792;9.802;2022-12-11T20:36:42;22.00;;;13.97;;
7211;SDS011;3647;48.792;9.802;2022-12-11T20:39:09;24.77;;;13.93;;
7211;SDS011;3647;48.792;9.802;2022-12-11T20:41:36;22.73;;;13.73;;
7211;SDS011;3647;48.792;9.802;2022-12-11T20:44:03;22.93;;;13.43;;
7211;SDS011;3647;48.792;9.802;2022-12-11T20:46:31;26.63;;;14.40;;
7211;SDS011;3647;48.792;9.802;2022-12-11T20:48:58;26.43;;;15.57;;
7211;SDS011;3647;48.792;9.802;2022-12-11T20:51:25;26.97;;;15.57;;
7211;SDS011;3647;48.792;9.802;2022-12-11T20:53:53;22.83;;;14.00;;
7211;SDS011;3647;48.792;9.802;2022-12-11T20:56:23;27.20;;;15.70;;
7211;SDS011;3647;48.792;9.802;2022-12-11T20:58:51;25.27;;;14.80;;
7211;SDS011;3647;48.792;9.802;2022-12-11T21:01:19;24.30;;;14.03;;
7211;SDS011;3647;48.792;9.802;2022-12-11T21:03:49;27.47;;;15.00;;
7211;SDS011;3647;48.792;9.802;2022-12-11T21:06:17;24.67;;;14.47;;
7211;SDS011;3647;48.792;9.802;2022-12-11T21:08:45;29.57;;;15.53;;
7211;SDS011;3647;48.792;9.802;2022-12-11T21:11:12;23.93;;;13.97;;
7211;SDS011;3647;48.792;9.802;2022-12-11T21:13:39;24.33;;;14.50;;
7211;SDS011;3647;48.792;9.802;2022-12-11T21:16:06;27.30;;;14.47;;
7211;SDS011;3647;48.792;9.802;2022-12-11T21:18:34;23.70;;;14.00;;
7211;SDS011;3647;48.792;9.802;2022-12-11T21:21:02;23.33;;;13.77;;
7211;SDS011;3647;48.792;9.802;2022-12-11T21:23:30;23.87;;;13.57;;
7211;SDS011;3647;48.792;9.802;2022-12-11T21:25:57;22.33;;;14.67;;
7211;SDS011;3647;48.792;9.802;2022-12-11T21:28:24;19.40;;;12.63;;
7211;SDS011;3647;48.792;9.802;2022-12-11T21:30:51;23.57;;;13.20;;
7211;SDS011;3647;48.792;9.802;2022-12-11T21:33:18;20.43;;;12.03;;
7211;SDS011;3647;48.792;9.802;2022-12-11T21:35:51;25.97;;;13.17;;
7211;SDS011;3647;48.792;9.802;2022-12-11T21:38:20;20.53;;;13.03;;
7211;SDS011;3647;48.792;9.802;2022-12-11T21:40:48;28.90;;;14.23;;
7211;SDS011;3647;48.792;9.802;2022-12-11T21:43:15;26.67;;;14.17;;
7211;SDS011;3647;48.792;9.802;2022-12-11T21:45:42;24.17;;;13.80;;
7211;SDS011;3647;48.792;9.802;2022-12-11T21:48:09;27.37;;;14.97;;
7211;SDS011;3647;48.792;9.802;2022-12-11T21:50:37;26.00;;;14.60;;
7211;SDS011;3647;48.792;9.802;2022-12-11T21:53:04;25.77;;;15.13;;
7211;SDS011;3647;48.792;9.802;2022-12-11T21:55:32;26.80;;;14.90;;
7211;SDS011;3647;48.792;9.802;2022-12-11T21:57:59;24.03;;;15.23;;
7211;SDS011;3647;48.792;9.802;2022-12-11T22:00:26;21.90;;;13.53;;
7211;SDS011;3647;48.792;9.802;2022-12-11T22:02:53;21.40;;;13.80;;
7211;SDS011;3647;48.792;9.802;2022-12-11T22:05:20;22.63;;;13.97;;
7211;SDS011;3647;48.792;9.802;2022-12-11T22:07:47;22.83;;;14.13;;
7211;SDS011;3647;48.792;9.802;2022-12-11T22:10:13;20.27;;;13.50;;
7211;SDS011;3647;48.792;9.802;2022-12-11T22:12:42;23.87;;;14.77;;
7211;SDS011;3647;48.792;9.802;2022-12-11T22:15:09;25.80;;;14.23;;
7211;SDS011;3647;48.792;9.802;2022-12-11T22:17:36;22.43;;;13.30;;
7211;SDS011;3647;48.792;9.802;2022-12-11T22:20:03;21.00;;;13.47;;
7211;SDS011;3647;48.792;9.802;2022-12-11T22:22:31;21.63;;;13.90;;
7211;SDS011;3647;48.792;9.802;2022-12-11T22:24:57;26.37;;;13.57;;
7211;SDS011;3647;48.792;9.802;2022-12-11T22:27:24;22.33;;;13.23;;
7211;SDS011;3647;48.792;9.802;2022-12-11T22:29:53;20.53;;;13.13;;
7211;SDS011;3647;48.792;9.802;2022-12-11T22:32:20;19.67;;;11.73;;
7211;SDS011;3647;48.792;9.802;2022-12-11T22:34:46;21.80;;;13.83;;
7211;SDS011;3647;48.792;9.802;2022-12-11T22:37:13;24.27;;;13.97;;
7211;SDS011;3647;48.792;9.802;2022-12-11T22:39:40;28.47;;;14.63;;
7211;SDS011;3647;48.792;9.802;2022-12-11T22:42:07;23.63;;;15.00;;
7211;SDS011;3647;48.792;9.802;2022-12-11T22:44:34;23.30;;;15.77;;
7211;SDS011;3647;48.792;9.802;2022-12-11T22:47:02;26.40;;;14.63;;
7211;SDS011;3647;48.792;9.802;2022-12-11T22:49:29;25.50;;;14.37;;
